sensor_id;sensor_type;location;lat;lon;timestamp;pressure;altitude;pressure_sealevel;temperature;humidity
68871;BME280;55906;52.278;6.808;2023-06-04T00:00:30;102083.88;;;14.63;48.01
68871;BME280;55906;52.278;6.808;2023-06-04T00:02:57;102075.75;;;14.57;47.27
68871;BME280;55906;52.278;6.808;2023-06-04T00:05:23;102080.94;;;14.53;47.82
68871;BME280;55906;52.278;6.808;2023-06-04T00:07:50;102081.69;;;14.49;47.82
68871;BME280;55906;52.278;6.808;2023-06-04T00:10:17;102079.81;;;14.45;47.92
68871;BME280;55906;52.278;6.808;2023-06-04T00:12:44;102075.19;;;14.39;47.82
68871;BME280;55906;52.278;6.808;2023-06-04T00:15:10;102073.31;;;14.35;48.20
68871;BME280;55906;52.278;6.808;2023-06-04T00:17:38;102069.66;;;14.31;47.97
68871;BME280;55906;52.278;6.808;2023-06-04T00:20:06;102070.31;;;14.24;48.19
68871;BME280;55906;52.278;6.808;2023-06-04T00:22:33;102072.81;;;14.20;48.00
68871;BME280;55906;52.278;6.808;2023-06-04T00:24:59;102077.16;;;14.18;48.34
68871;BME280;55906;52.278;6.808;2023-06-04T00:27:26;102070.84;;;14.13;48.39
68871;BME280;55906;52.278;6.808;2023-06-04T00:29:53;102076.88;;;14.08;48.46
68871;BME280;55906;52.278;6.808;2023-06-04T00:32:19;102077.63;;;14.04;48.24
68871;BME280;55906;52.278;6.808;2023-06-04T00:34:51;102073.91;;;13.98;48.91
68871;BME280;55906;52.278;6.808;2023-06-04T00:37:18;102076.41;;;13.93;48.90
68871;BME280;55906;52.278;6.808;2023-06-04T00:39:45;102090.44;;;13.91;48.95
68871;BME280;55906;52.278;6.808;2023-06-04T00:42:12;102079.72;;;13.86;49.20
68871;BME280;55906;52.278;6.808;2023-06-04T00:44:38;102085.78;;;13.84;49.36
68871;BME280;55906;52.278;6.808;2023-06-04T00:47:08;102083.06;;;13.81;49.25
68871;BME280;55906;52.278;6.808;2023-06-04T00:49:35;102082.00;;;13.75;49.45
68871;BME280;55906;52.278;6.808;2023-06-04T00:52:04;102084.56;;;13.72;49.19
68871;BME280;55906;52.278;6.808;2023-06-04T00:54:31;102076.38;;;13.65;49.62
68871;BME280;55906;52.278;6.808;2023-06-04T00:56:59;102077.06;;;13.59;49.69
68871;BME280;55906;52.278;6.808;2023-06-04T00:59:26;102084.91;;;13.56;49.45
68871;BME280;55906;52.278;6.808;2023-06-04T01:01:57;102083.94;;;13.54;50.15
68871;BME280;55906;52.278;6.808;2023-06-04T01:04:29;102083.84;;;13.51;50.19
68871;BME280;55906;52.278;6.808;2023-06-04T01:07:00;102080.25;;;13.49;49.99
68871;BME280;55906;52.278;6.808;2023-06-04T01:09:31;102078.31;;;13.43;50.35
68871;BME280;55906;52.278;6.808;2023-06-04T01:11:57;102076.34;;;13.38;50.26
68871;BME280;55906;52.278;6.808;2023-06-04T01:14:24;102074.44;;;13.34;50.15
68871;BME280;55906;52.278;6.808;2023-06-04T01:16:55;102076.94;;;13.29;51.10
68871;BME280;55906;52.278;6.808;2023-06-04T01:19:47;102086.50;;;13.26;52.27
68871;BME280;55906;52.278;6.808;2023-06-04T01:22:29;102078.41;;;13.21;52.27
68871;BME280;55906;52.278;6.808;2023-06-04T01:25:03;102078.31;;;13.18;51.49
68871;BME280;55906;52.278;6.808;2023-06-04T01:27:30;102090.44;;;13.13;51.05
68871;BME280;55906;52.278;6.808;2023-06-04T01:29:58;102086.72;;;13.08;51.24
68871;BME280;55906;52.278;6.808;2023-06-04T01:32:26;102081.34;;;13.05;51.24
68871;BME280;55906;52.278;6.808;2023-06-04T01:34:54;102079.53;;;13.04;51.43
68871;BME280;55906;52.278;6.808;2023-06-04T01:37:20;102088.91;;;12.96;52.43
68871;BME280;55906;52.278;6.808;2023-06-04T01:39:47;102083.56;;;12.94;51.81
68871;BME280;55906;52.278;6.808;2023-06-04T01:42:15;102079.97;;;12.92;51.73
68871;BME280;55906;52.278;6.808;2023-06-04T01:44:42;102082.44;;;12.88;52.07
68871;BME280;55906;52.278;6.808;2023-06-04T01:47:08;102079.59;;;12.81;52.70
68871;BME280;55906;52.278;6.808;2023-06-04T01:49:35;102075.94;;;12.78;52.67
68871;BME280;55906;52.278;6.808;2023-06-04T01:52:03;102075.81;;;12.75;52.72
68871;BME280;55906;52.278;6.808;2023-06-04T01:54:31;102072.91;;;12.67;53.07
68871;BME280;55906;52.278;6.808;2023-06-04T01:56:59;102068.41;;;12.65;52.55
68871;BME280;55906;52.278;6.808;2023-06-04T01:59:27;102065.72;;;12.63;53.33
68871;BME280;55906;52.278;6.808;2023-06-04T02:01:54;102077.06;;;12.61;52.99
68871;BME280;55906;52.278;6.808;2023-06-04T02:04:20;102073.41;;;12.57;54.32
68871;BME280;55906;52.278;6.808;2023-06-04T02:06:48;102071.63;;;12.56;53.38
68871;BME280;55906;52.278;6.808;2023-06-04T02:09:15;102069.66;;;12.50;53.55
68871;BME280;55906;52.278;6.808;2023-06-04T02:11:41;102073.06;;;12.48;54.58
68871;BME280;55906;52.278;6.808;2023-06-04T02:14:08;102069.47;;;12.46;53.56
68871;BME280;55906;52.278;6.808;2023-06-04T02:16:36;102068.28;;;12.38;55.84
68871;BME280;55906;52.278;6.808;2023-06-04T02:19:04;102076.22;;;12.38;54.25
68871;BME280;55906;52.278;6.808;2023-06-04T02:21:30;102072.63;;;12.36;54.48
68871;BME280;55906;52.278;6.808;2023-06-04T02:23:57;102078.72;;;12.35;54.36
68871;BME280;55906;52.278;6.808;2023-06-04T02:26:24;102072.44;;;12.31;54.86
68871;BME280;55906;52.278;6.808;2023-06-04T02:28:50;102080.06;;;12.24;58.13
68871;BME280;55906;52.278;6.808;2023-06-04T02:31:17;102077.44;;;12.24;55.82
68871;BME280;55906;52.278;6.808;2023-06-04T02:33:45;102071.97;;;12.19;55.91
68871;BME280;55906;52.278;6.808;2023-06-04T02:36:12;102069.28;;;12.17;55.88
68871;BME280;55906;52.278;6.808;2023-06-04T02:38:38;102076.94;;;12.11;57.67
68871;BME280;55906;52.278;6.808;2023-06-04T02:41:05;102083.84;;;12.08;56.78
68871;BME280;55906;52.278;6.808;2023-06-04T02:43:32;102079.34;;;12.05;57.29
68871;BME280;55906;52.278;6.808;2023-06-04T02:45:58;102080.91;;;12.00;57.41
68871;BME280;55906;52.278;6.808;2023-06-04T02:48:25;102077.25;;;11.97;57.90
68871;BME280;55906;52.278;6.808;2023-06-04T02:50:53;102075.50;;;11.97;57.97
68871;BME280;55906;52.278;6.808;2023-06-04T02:53:20;102078.09;;;11.96;57.43
68871;BME280;55906;52.278;6.808;2023-06-04T02:55:47;102080.59;;;11.93;57.87
68871;BME280;55906;52.278;6.808;2023-06-04T02:58:13;102084.09;;;11.92;57.98
68871;BME280;55906;52.278;6.808;2023-06-04T03:00:41;102079.59;;;11.89;58.89
68871;BME280;55906;52.278;6.808;2023-06-04T03:03:07;102076.88;;;11.88;58.73
68871;BME280;55906;52.278;6.808;2023-06-04T03:05:34;102082.09;;;11.86;58.83
68871;BME280;55906;52.278;6.808;2023-06-04T03:08:03;102075.81;;;11.82;59.85
68871;BME280;55906;52.278;6.808;2023-06-04T03:10:30;102078.38;;;11.81;59.10
68871;BME280;55906;52.278;6.808;2023-06-04T03:12:57;102084.56;;;11.81;58.98
68871;BME280;55906;52.278;6.808;2023-06-04T03:15:24;102081.78;;;11.78;59.37
68871;BME280;55906;52.278;6.808;2023-06-04T03:17:50;102080.00;;;11.77;59.07
68871;BME280;55906;52.278;6.808;2023-06-04T03:20:18;102079.00;;;11.75;59.51
68871;BME280;55906;52.278;6.808;2023-06-04T03:22:44;102077.06;;;11.71;60.36
68871;BME280;55906;52.278;6.808;2023-06-04T03:25:12;102082.34;;;11.71;60.50
68871;BME280;55906;52.278;6.808;2023-06-04T03:27:39;102087.47;;;11.68;60.64
68871;BME280;55906;52.278;6.808;2023-06-04T03:30:07;102084.81;;;11.68;60.69
68871;BME280;55906;52.278;6.808;2023-06-04T03:32:34;102091.00;;;11.69;60.45
68871;BME280;55906;52.278;6.808;2023-06-04T03:35:01;102074.22;;;11.67;60.69
68871;BME280;55906;52.278;6.808;2023-06-04T03:37:28;102072.41;;;11.66;60.65
68871;BME280;55906;52.278;6.808;2023-06-04T03:39:55;102084.75;;;11.67;60.49
68871;BME280;55906;52.278;6.808;2023-06-04T03:42:23;102070.63;;;11.65;60.90
68871;BME280;55906;52.278;6.808;2023-06-04T03:44:50;102077.56;;;11.63;61.98
68871;BME280;55906;52.278;6.808;2023-06-04T03:47:16;102080.91;;;11.59;63.21
68871;BME280;55906;52.278;6.808;2023-06-04T03:49:43;102079.25;;;11.61;61.06
68871;BME280;55906;52.278;6.808;2023-06-04T03:52:09;102080.78;;;11.55;62.73
68871;BME280;55906;52.278;6.808;2023-06-04T03:54:36;102082.72;;;11.60;61.80
68871;BME280;55906;52.278;6.808;2023-06-04T03:57:03;102083.59;;;11.60;61.85
68871;BME280;55906;52.278;6.808;2023-06-04T03:59:31;102084.50;;;11.61;62.25
68871;BME280;55906;52.278;6.808;2023-06-04T04:01:58;102082.72;;;11.60;63.81
68871;BME280;55906;52.278;6.808;2023-06-04T04:04:24;102075.63;;;11.59;63.24
68871;BME280;55906;52.278;6.808;2023-06-04T04:06:51;102081.94;;;11.62;62.69
68871;BME280;55906;52.278;6.808;2023-06-04T04:09:17;102075.75;;;11.62;63.27
68871;BME280;55906;52.278;6.808;2023-06-04T04:11:44;102079.25;;;11.61;64.08
68871;BME280;55906;52.278;6.808;2023-06-04T04:14:11;102075.88;;;11.65;62.52
68871;BME280;55906;52.278;6.808;2023-06-04T04:16:39;102079.44;;;11.65;63.24
68871;BME280;55906;52.278;6.808;2023-06-04T04:19:05;102083.03;;;11.67;63.13
68871;BME280;55906;52.278;6.808;2023-06-04T04:21:33;102085.03;;;11.73;63.19
68871;BME280;55906;52.278;6.808;2023-06-04T04:24:01;102085.09;;;11.74;63.36
68871;BME280;55906;52.278;6.808;2023-06-04T04:26:28;102091.44;;;11.78;63.06
68871;BME280;55906;52.278;6.808;2023-06-04T04:28:55;102095.88;;;11.79;64.92
68871;BME280;55906;52.278;6.808;2023-06-04T04:31:23;102088.88;;;11.79;65.31
68871;BME280;55906;52.278;6.808;2023-06-04T04:33:52;102089.03;;;11.84;64.46
68871;BME280;55906;52.278;6.808;2023-06-04T04:36:19;102097.91;;;11.86;64.65
68871;BME280;55906;52.278;6.808;2023-06-04T04:38:45;102094.56;;;11.90;64.51
68871;BME280;55906;52.278;6.808;2023-06-04T04:41:19;102091.22;;;11.94;64.93
68871;BME280;55906;52.278;6.808;2023-06-04T04:43:46;102094.75;;;11.95;64.86
68871;BME280;55906;52.278;6.808;2023-06-04T04:46:13;102090.63;;;12.01;64.61
68871;BME280;55906;52.278;6.808;2023-06-04T04:48:39;102084.63;;;12.05;64.51
68871;BME280;55906;52.278;6.808;2023-06-04T04:51:09;102086.47;;;12.08;65.58
68871;BME280;55906;52.278;6.808;2023-06-04T04:53:35;102098.19;;;12.14;64.76
68871;BME280;55906;52.278;6.808;2023-06-04T04:56:02;102093.19;;;12.22;64.62
68871;BME280;55906;52.278;6.808;2023-06-04T04:58:29;102090.63;;;12.24;66.16
68871;BME280;55906;52.278;6.808;2023-06-04T05:00:55;102098.81;;;12.31;65.00
68871;BME280;55906;52.278;6.808;2023-06-04T05:03:22;102091.09;;;12.36;64.57
68871;BME280;55906;52.278;6.808;2023-06-04T05:05:48;102096.59;;;12.42;64.54
68871;BME280;55906;52.278;6.808;2023-06-04T05:08:16;102100.38;;;12.48;64.19
68871;BME280;55906;52.278;6.808;2023-06-04T05:10:43;102091.66;;;12.51;64.42
68871;BME280;55906;52.278;6.808;2023-06-04T05:13:10;102092.78;;;12.58;64.79
68871;BME280;55906;52.278;6.808;2023-06-04T05:15:36;102085.03;;;12.62;64.00
68871;BME280;55906;52.278;6.808;2023-06-04T05:18:05;102093.31;;;12.71;64.31
68871;BME280;55906;52.278;6.808;2023-06-04T05:20:31;102084.88;;;12.81;63.74
68871;BME280;55906;52.278;6.808;2023-06-04T05:23:00;102085.19;;;12.91;63.46
68871;BME280;55906;52.278;6.808;2023-06-04T05:25:28;102087.09;;;12.95;64.41
68871;BME280;55906;52.278;6.808;2023-06-04T05:27:56;102083.09;;;13.04;63.29
68871;BME280;55906;52.278;6.808;2023-06-04T05:30:23;102078.81;;;13.08;63.50
68871;BME280;55906;52.278;6.808;2023-06-04T05:32:50;102079.88;;;13.13;63.59
68871;BME280;55906;52.278;6.808;2023-06-04T05:35:18;102074.78;;;13.18;64.10
68871;BME280;55906;52.278;6.808;2023-06-04T05:37:45;102080.47;;;13.30;63.12
68871;BME280;55906;52.278;6.808;2023-06-04T05:40:19;102078.31;;;13.43;62.65
68871;BME280;55906;52.278;6.808;2023-06-04T05:42:47;102073.44;;;13.56;62.38
68871;BME280;55906;52.278;6.808;2023-06-04T05:45:14;102082.31;;;13.58;62.96
68871;BME280;55906;52.278;6.808;2023-06-04T05:47:41;102080.97;;;13.70;62.21
68871;BME280;55906;52.278;6.808;2023-06-04T05:50:09;102084.81;;;13.80;61.84
68871;BME280;55906;52.278;6.808;2023-06-04T05:52:35;102085.13;;;13.91;61.67
68871;BME280;55906;52.278;6.808;2023-06-04T05:55:03;102087.31;;;14.04;61.21
68871;BME280;55906;52.278;6.808;2023-06-04T05:57:32;102084.88;;;14.10;61.10
68871;BME280;55906;52.278;6.808;2023-06-04T06:00:00;102088.69;;;14.20;61.34
68871;BME280;55906;52.278;6.808;2023-06-04T06:02:27;102084.72;;;14.32;60.41
68871;BME280;55906;52.278;6.808;2023-06-04T06:04:54;102089.38;;;14.41;60.69
68871;BME280;55906;52.278;6.808;2023-06-04T06:07:21;102085.31;;;14.52;59.61
68871;BME280;55906;52.278;6.808;2023-06-04T06:09:48;102087.25;;;14.58;59.57
68871;BME280;55906;52.278;6.808;2023-06-04T06:12:14;102093.53;;;14.61;59.67
68871;BME280;55906;52.278;6.808;2023-06-04T06:14:41;102096.63;;;14.77;58.93
68871;BME280;55906;52.278;6.808;2023-06-04T06:17:09;102094.41;;;14.92;58.51
68871;BME280;55906;52.278;6.808;2023-06-04T06:19:36;102087.44;;;14.95;58.49
68871;BME280;55906;52.278;6.808;2023-06-04T06:22:03;102095.00;;;15.13;57.73
68871;BME280;55906;52.278;6.808;2023-06-04T06:24:30;102092.47;;;15.18;58.47
68871;BME280;55906;52.278;6.808;2023-06-04T06:26:57;102098.06;;;15.28;57.92
68871;BME280;55906;52.278;6.808;2023-06-04T06:29:24;102097.44;;;15.38;57.62
68871;BME280;55906;52.278;6.808;2023-06-04T06:31:50;102089.72;;;15.48;58.03
68871;BME280;55906;52.278;6.808;2023-06-04T06:34:18;102093.41;;;15.54;57.32
68871;BME280;55906;52.278;6.808;2023-06-04T06:36:45;102089.41;;;15.68;56.99
68871;BME280;55906;52.278;6.808;2023-06-04T06:39:12;102094.16;;;15.82;56.53
68871;BME280;55906;52.278;6.808;2023-06-04T06:41:39;102093.59;;;15.95;56.12
68871;BME280;55906;52.278;6.808;2023-06-04T06:44:06;102100.09;;;16.08;55.66
68871;BME280;55906;52.278;6.808;2023-06-04T06:46:33;102103.13;;;16.24;55.30
68871;BME280;55906;52.278;6.808;2023-06-04T06:48:59;102102.44;;;16.33;55.15
68871;BME280;55906;52.278;6.808;2023-06-04T06:51:27;102107.88;;;16.39;55.64
68871;BME280;55906;52.278;6.808;2023-06-04T06:53:54;102110.03;;;16.57;54.79
68871;BME280;55906;52.278;6.808;2023-06-04T06:56:21;102104.94;;;16.66;54.86
68871;BME280;55906;52.278;6.808;2023-06-04T06:58:47;102108.56;;;16.70;54.37
68871;BME280;55906;52.278;6.808;2023-06-04T07:01:14;102102.34;;;16.69;53.93
68871;BME280;55906;52.278;6.808;2023-06-04T07:03:41;102111.69;;;16.91;53.42
68871;BME280;55906;52.278;6.808;2023-06-04T07:06:08;102106.66;;;17.06;53.40
68871;BME280;55906;52.278;6.808;2023-06-04T07:08:36;102104.28;;;17.20;52.82
68871;BME280;55906;52.278;6.808;2023-06-04T07:11:03;102101.84;;;17.32;52.07
68871;BME280;55906;52.278;6.808;2023-06-04T07:13:29;102114.47;;;17.45;51.94
68871;BME280;55906;52.278;6.808;2023-06-04T07:15:57;102112.28;;;17.70;51.41
68871;BME280;55906;52.278;6.808;2023-06-04T07:18:24;102119.53;;;17.80;50.89
68871;BME280;55906;52.278;6.808;2023-06-04T07:20:50;102110.81;;;17.88;50.54
68871;BME280;55906;52.278;6.808;2023-06-04T07:23:18;102112.50;;;17.83;50.60
68871;BME280;55906;52.278;6.808;2023-06-04T07:25:46;102109.22;;;18.00;50.12
68871;BME280;55906;52.278;6.808;2023-06-04T07:28:12;102117.22;;;18.01;50.11
68871;BME280;55906;52.278;6.808;2023-06-04T07:30:39;102113.13;;;18.21;49.29
68871;BME280;55906;52.278;6.808;2023-06-04T07:33:06;102111.59;;;18.39;48.70
68871;BME280;55906;52.278;6.808;2023-06-04T07:35:32;102108.16;;;18.47;48.02
68871;BME280;55906;52.278;6.808;2023-06-04T07:37:59;102116.41;;;18.66;48.13
68871;BME280;55906;52.278;6.808;2023-06-04T07:40:26;102119.22;;;18.78;47.81
68871;BME280;55906;52.278;6.808;2023-06-04T07:42:54;102116.69;;;18.87;47.59
68871;BME280;55906;52.278;6.808;2023-06-04T07:45:20;102119.38;;;18.90;47.39
68871;BME280;55906;52.278;6.808;2023-06-04T07:47:47;102107.03;;;18.98;47.24
68871;BME280;55906;52.278;6.808;2023-06-04T07:50:14;102114.38;;;19.19;46.90
68871;BME280;55906;52.278;6.808;2023-06-04T07:52:41;102110.09;;;19.35;46.39
68871;BME280;55906;52.278;6.808;2023-06-04T07:55:08;102117.25;;;19.39;46.50
68871;BME280;55906;52.278;6.808;2023-06-04T07:57:35;102106.88;;;19.66;45.48
68871;BME280;55906;52.278;6.808;2023-06-04T08:00:05;102112.38;;;19.85;44.67
68871;BME280;55906;52.278;6.808;2023-06-04T08:02:33;102117.50;;;19.60;43.24
68871;BME280;55906;52.278;6.808;2023-06-04T08:05:00;102114.91;;;19.69;44.16
68871;BME280;55906;52.278;6.808;2023-06-04T08:07:27;102115.09;;;19.92;44.21
68871;BME280;55906;52.278;6.808;2023-06-04T08:09:54;102122.38;;;20.16;43.69
68871;BME280;55906;52.278;6.808;2023-06-04T08:12:21;102123.22;;;20.06;43.06
68871;BME280;55906;52.278;6.808;2023-06-04T08:14:48;102126.91;;;20.29;43.30
68871;BME280;55906;52.278;6.808;2023-06-04T08:17:17;102118.13;;;20.42;42.94
68871;BME280;55906;52.278;6.808;2023-06-04T08:19:43;102124.44;;;20.60;42.19
68871;BME280;55906;52.278;6.808;2023-06-04T08:22:10;102119.16;;;20.73;41.92
68871;BME280;55906;52.278;6.808;2023-06-04T08:24:37;102121.06;;;20.97;41.75
68871;BME280;55906;52.278;6.808;2023-06-04T08:27:04;102116.66;;;21.19;41.43
68871;BME280;55906;52.278;6.808;2023-06-04T08:29:32;102115.81;;;21.34;40.68
68871;BME280;55906;52.278;6.808;2023-06-04T08:31:59;102119.38;;;21.24;40.95
68871;BME280;55906;52.278;6.808;2023-06-04T08:34:27;102116.75;;;21.53;39.88
68871;BME280;55906;52.278;6.808;2023-06-04T08:36:53;102121.22;;;21.69;39.71
68871;BME280;55906;52.278;6.808;2023-06-04T08:39:20;102125.66;;;21.76;39.76
68871;BME280;55906;52.278;6.808;2023-06-04T08:41:49;102122.97;;;22.02;39.46
68871;BME280;55906;52.278;6.808;2023-06-04T08:44:18;102115.88;;;22.19;39.03
68871;BME280;55906;52.278;6.808;2023-06-04T08:46:44;102115.84;;;22.27;38.60
68871;BME280;55906;52.278;6.808;2023-06-04T08:49:12;102116.72;;;22.37;38.48
68871;BME280;55906;52.278;6.808;2023-06-04T08:51:40;102115.78;;;22.47;38.16
68871;BME280;55906;52.278;6.808;2023-06-04T08:54:08;102114.91;;;22.45;38.02
68871;BME280;55906;52.278;6.808;2023-06-04T08:56:36;102116.69;;;22.43;35.48
68871;BME280;55906;52.278;6.808;2023-06-04T08:59:04;102120.22;;;22.54;36.10
68871;BME280;55906;52.278;6.808;2023-06-04T09:01:32;102132.69;;;22.81;36.57
68871;BME280;55906;52.278;6.808;2023-06-04T09:04:01;102125.44;;;22.99;36.22
68871;BME280;55906;52.278;6.808;2023-06-04T09:06:29;102117.25;;;23.19;35.66
68871;BME280;55906;52.278;6.808;2023-06-04T09:08:58;102118.00;;;23.49;34.84
68871;BME280;55906;52.278;6.808;2023-06-04T09:11:27;102121.28;;;23.89;34.76
68871;BME280;55906;52.278;6.808;2023-06-04T09:13:59;102107.78;;;23.95;33.71
68871;BME280;55906;52.278;6.808;2023-06-04T09:16:28;102114.50;;;24.39;34.02
68871;BME280;55906;52.278;6.808;2023-06-04T09:19:02;102120.06;;;25.02;33.29
68871;BME280;55906;52.278;6.808;2023-06-04T09:21:28;102117.44;;;25.56;33.00
68871;BME280;55906;52.278;6.808;2023-06-04T09:23:57;102122.13;;;25.98;30.73
68871;BME280;55906;52.278;6.808;2023-06-04T09:26:24;102123.22;;;26.39;31.34
68871;BME280;55906;52.278;6.808;2023-06-04T09:28:51;102115.75;;;26.95;30.98
68871;BME280;55906;52.278;6.808;2023-06-04T09:31:20;102115.66;;;27.41;29.49
68871;BME280;55906;52.278;6.808;2023-06-04T09:33:51;102117.06;;;27.93;29.97
68871;BME280;55906;52.278;6.808;2023-06-04T09:36:18;102111.19;;;28.44;29.36
68871;BME280;55906;52.278;6.808;2023-06-04T09:38:45;102106.53;;;28.80;28.45
68871;BME280;55906;52.278;6.808;2023-06-04T09:41:14;102107.94;;;28.94;26.37
68871;BME280;55906;52.278;6.808;2023-06-04T09:43:40;102098.09;;;29.48;27.55
68871;BME280;55906;52.278;6.808;2023-06-04T09:46:13;102097.69;;;29.86;26.24
68871;BME280;55906;52.278;6.808;2023-06-04T09:48:40;102091.91;;;29.71;23.40
68871;BME280;55906;52.278;6.808;2023-06-04T09:51:08;102100.84;;;30.01;24.65
68871;BME280;55906;52.278;6.808;2023-06-04T09:53:35;102090.25;;;30.43;24.50
68871;BME280;55906;52.278;6.808;2023-06-04T09:56:03;102100.06;;;30.47;24.12
68871;BME280;55906;52.278;6.808;2023-06-04T09:58:31;102095.50;;;29.98;21.57
68871;BME280;55906;52.278;6.808;2023-06-04T10:00:59;102105.53;;;30.22;23.19
68871;BME280;55906;52.278;6.808;2023-06-04T10:03:30;102104.72;;;30.43;21.80
68871;BME280;55906;52.278;6.808;2023-06-04T10:05:59;102100.19;;;30.69;22.45
68871;BME280;55906;52.278;6.808;2023-06-04T10:08:27;102092.34;;;31.06;21.97
68871;BME280;55906;52.278;6.808;2023-06-04T10:10:55;102099.56;;;31.07;20.66
68871;BME280;55906;52.278;6.808;2023-06-04T10:13:24;102095.03;;;30.84;20.15
68871;BME280;55906;52.278;6.808;2023-06-04T10:15:56;102089.88;;;31.00;20.42
68871;BME280;55906;52.278;6.808;2023-06-04T10:18:24;102084.25;;;31.50;21.79
68871;BME280;55906;52.278;6.808;2023-06-04T10:20:53;102087.75;;;31.32;20.67
68871;BME280;55906;52.278;6.808;2023-06-04T10:23:20;102087.72;;;31.54;21.19
68871;BME280;55906;52.278;6.808;2023-06-04T10:25:48;102086.28;;;31.45;21.19
68871;BME280;55906;52.278;6.808;2023-06-04T10:28:18;102099.81;;;31.68;20.75
68871;BME280;55906;52.278;6.808;2023-06-04T10:30:44;102091.28;;;31.77;20.71
68871;BME280;55906;52.278;6.808;2023-06-04T10:33:13;102086.66;;;31.79;20.75
68871;BME280;55906;52.278;6.808;2023-06-04T10:35:42;102075.28;;;32.10;20.29
68871;BME280;55906;52.278;6.808;2023-06-04T10:38:10;102084.06;;;31.97;19.91
68871;BME280;55906;52.278;6.808;2023-06-04T10:40:38;102088.22;;;32.46;19.30
68871;BME280;55906;52.278;6.808;2023-06-04T10:43:06;102085.91;;;32.17;19.33
68871;BME280;55906;52.278;6.808;2023-06-04T10:45:33;102083.69;;;32.86;19.62
68871;BME280;55906;52.278;6.808;2023-06-04T10:48:00;102085.19;;;32.72;18.75
68871;BME280;55906;52.278;6.808;2023-06-04T10:50:28;102074.25;;;32.93;18.65
68871;BME280;55906;52.278;6.808;2023-06-04T10:52:56;102068.13;;;32.88;18.42
68871;BME280;55906;52.278;6.808;2023-06-04T10:55:24;102075.38;;;32.29;19.69
68871;BME280;55906;52.278;6.808;2023-06-04T10:57:52;102072.09;;;32.99;19.29
68871;BME280;55906;52.278;6.808;2023-06-04T11:00:19;102077.88;;;33.48;18.91
68871;BME280;55906;52.278;6.808;2023-06-04T11:02:53;102071.03;;;33.39;18.22
68871;BME280;55906;52.278;6.808;2023-06-04T11:05:21;102067.66;;;33.16;17.87
68871;BME280;55906;52.278;6.808;2023-06-04T11:07:49;102072.09;;;33.71;18.45
68871;BME280;55906;52.278;6.808;2023-06-04T11:10:17;102062.88;;;33.57;16.90
68871;BME280;55906;52.278;6.808;2023-06-04T11:12:45;102064.47;;;33.97;17.96
68871;BME280;55906;52.278;6.808;2023-06-04T11:15:12;102067.34;;;33.94;17.63
68871;BME280;55906;52.278;6.808;2023-06-04T11:17:49;102058.38;;;34.42;17.93
68871;BME280;55906;52.278;6.808;2023-06-04T11:20:16;102065.19;;;34.84;17.44
68871;BME280;55906;52.278;6.808;2023-06-04T11:22:51;102052.22;;;34.54;17.39
68871;BME280;55906;52.278;6.808;2023-06-04T11:25:18;102062.63;;;34.48;17.74
68871;BME280;55906;52.278;6.808;2023-06-04T11:27:47;102060.66;;;34.34;17.25
68871;BME280;55906;52.278;6.808;2023-06-04T11:30:14;102050.28;;;32.99;17.79
68871;BME280;55906;52.278;6.808;2023-06-04T11:32:41;102049.06;;;34.29;17.71
68871;BME280;55906;52.278;6.808;2023-06-04T11:35:09;102041.25;;;34.87;17.07
68871;BME280;55906;52.278;6.808;2023-06-04T11:37:36;102037.03;;;34.97;16.65
68871;BME280;55906;52.278;6.808;2023-06-04T11:40:15;102039.75;;;35.29;15.96
68871;BME280;55906;52.278;6.808;2023-06-04T11:42:43;102052.22;;;34.54;17.61
68871;BME280;55906;52.278;6.808;2023-06-04T11:45:10;102029.69;;;34.82;15.94
68871;BME280;55906;52.278;6.808;2023-06-04T11:47:37;102046.84;;;35.33;16.18
68871;BME280;55906;52.278;6.808;2023-06-04T11:50:04;102027.56;;;35.80;15.73
68871;BME280;55906;52.278;6.808;2023-06-04T11:52:31;102025.16;;;36.18;15.27
68871;BME280;55906;52.278;6.808;2023-06-04T11:54:59;102034.25;;;36.05;14.25
68871;BME280;55906;52.278;6.808;2023-06-04T11:57:28;102031.13;;;35.21;16.29
68871;BME280;55906;52.278;6.808;2023-06-04T11:59:55;102030.63;;;36.04;15.51
68871;BME280;55906;52.278;6.808;2023-06-04T12:02:22;102025.16;;;36.18;15.31
68871;BME280;55906;52.278;6.808;2023-06-04T12:04:49;102030.19;;;36.69;14.42
68871;BME280;55906;52.278;6.808;2023-06-04T12:07:19;102025.38;;;36.87;14.26
68871;BME280;55906;52.278;6.808;2023-06-04T12:09:49;102027.53;;;36.24;15.07
68871;BME280;55906;52.278;6.808;2023-06-04T12:12:21;102027.66;;;36.80;13.80
68871;BME280;55906;52.278;6.808;2023-06-04T12:14:56;102031.56;;;37.17;13.63
68871;BME280;55906;52.278;6.808;2023-06-04T12:17:23;102021.75;;;37.27;14.00
68871;BME280;55906;52.278;6.808;2023-06-04T12:19:51;102019.34;;;37.35;13.89
68871;BME280;55906;52.278;6.808;2023-06-04T12:22:18;102021.75;;;37.27;14.23
68871;BME280;55906;52.278;6.808;2023-06-04T12:24:49;102020.56;;;37.31;13.90
68871;BME280;55906;52.278;6.808;2023-06-04T12:27:18;102018.75;;;37.84;13.41
68871;BME280;55906;52.278;6.808;2023-06-04T12:29:56;102009.19;;;37.90;12.85
68871;BME280;55906;52.278;6.808;2023-06-04T12:32:23;102020.00;;;38.18;13.29
68871;BME280;55906;52.278;6.808;2023-06-04T12:34:50;102012.25;;;38.10;13.07
68871;BME280;55906;52.278;6.808;2023-06-04T12:37:17;102009.19;;;37.63;13.71
68871;BME280;55906;52.278;6.808;2023-06-04T12:39:43;102007.00;;;38.33;13.40
68871;BME280;55906;52.278;6.808;2023-06-04T12:42:10;102006.91;;;38.84;13.51
68871;BME280;55906;52.278;6.808;2023-06-04T12:44:38;102007.84;;;39.08;12.66
68871;BME280;55906;52.278;6.808;2023-06-04T12:47:07;101999.34;;;38.98;12.41
68871;BME280;55906;52.278;6.808;2023-06-04T12:49:34;101995.66;;;38.87;12.91
68871;BME280;55906;52.278;6.808;2023-06-04T12:52:00;101998.19;;;38.28;13.12